createdAt,value
2023-04-10T00:01:39.466Z,100.00
2023-04-10T00:04:10.877Z,100.00
2023-04-10T00:06:42.887Z,100.00
2023-04-10T00:09:14.577Z,100.00
2023-04-10T00:11:43.878Z,100.00
2023-04-10T00:14:15.700Z,100.00
2023-04-10T00:16:45.215Z,100.00
2023-04-10T00:19:14.391Z,100.00
2023-04-10T00:21:43.992Z,100.00
2023-04-10T00:24:14.730Z,100.00
2023-04-10T00:26:43.798Z,100.00
2023-04-10T00:29:13.006Z,100.00
2023-04-10T00:31:42.257Z,100.00
2023-04-10T00:34:12.037Z,100.00
2023-04-10T00:36:41.333Z,100.00
2023-04-10T00:39:15.554Z,100.00
2023-04-10T00:41:48.658Z,100.00
2023-04-10T00:44:17.846Z,100.00
2023-04-10T00:46:46.973Z,100.00
2023-04-10T00:49:16.017Z,100.00
2023-04-10T00:51:45.834Z,100.00
2023-04-10T00:54:16.653Z,100.00
2023-04-10T00:56:47.496Z,100.00
2023-04-10T00:59:17.131Z,100.00
2023-04-10T01:01:46.578Z,100.00
2023-04-10T01:04:17.001Z,100.00
2023-04-10T01:06:55.716Z,100.00
2023-04-10T01:09:40.230Z,100.00
2023-04-10T01:12:17.666Z,100.00
2023-04-10T01:15:05.922Z,100.00
2023-04-10T01:17:42.264Z,100.00
2023-04-10T01:20:15.848Z,100.00
2023-04-10T01:23:01.472Z,100.00
2023-04-10T01:25:45.249Z,100.00
2023-04-10T01:28:34.811Z,100.00
2023-04-10T01:31:07.809Z,100.00
2023-04-10T01:33:42.137Z,100.00
2023-04-10T01:36:13.402Z,100.00
2023-04-10T01:38:44.944Z,100.00
2023-04-10T01:41:15.185Z,100.00
2023-04-10T01:43:44.672Z,100.00
2023-04-10T01:46:15.880Z,100.00
2023-04-10T01:48:46.436Z,100.00
2023-04-10T01:51:16.864Z,100.00
2023-04-10T01:53:49.002Z,100.00
2023-04-10T01:56:24.250Z,100.00
2023-04-10T01:58:53.647Z,100.00
2023-04-10T02:01:29.814Z,100.00
2023-04-10T02:04:00.456Z,100.00
2023-04-10T02:06:41.118Z,100.00
2023-04-10T02:09:22.091Z,100.00
2023-04-10T02:11:57.117Z,100.00
2023-04-10T02:14:29.744Z,100.00
2023-04-10T02:17:02.723Z,100.00
2023-04-10T02:19:33.361Z,100.00
2023-04-10T02:22:03.050Z,100.00
2023-04-10T02:24:33.993Z,100.00
2023-04-10T02:27:06.355Z,100.00
2023-04-10T02:29:49.089Z,100.00
2023-04-10T02:32:19.752Z,100.00
2023-04-10T02:34:48.787Z,100.00
2023-04-10T02:37:17.985Z,100.00
2023-04-10T02:39:47.141Z,100.00
2023-04-10T02:42:16.856Z,100.00
2023-04-10T02:44:46.475Z,100.00
2023-04-10T02:47:16.233Z,100.00
2023-04-10T02:49:49.516Z,100.00
2023-04-10T02:52:19.858Z,100.00
2023-04-10T02:54:49.081Z,100.00
2023-04-10T02:57:21.575Z,100.00
2023-04-10T02:59:52.273Z,100.00
2023-04-10T03:02:23.108Z,100.00
2023-04-10T03:04:56.725Z,100.00
2023-04-10T03:07:26.120Z,100.00
2023-04-10T03:09:56.293Z,100.00
2023-04-10T03:12:25.546Z,100.00
2023-04-10T03:14:54.655Z,100.00
2023-04-10T03:17:23.763Z,100.00
2023-04-10T03:19:54.871Z,100.00
2023-04-10T03:22:24.644Z,100.00
2023-04-10T03:24:54.186Z,100.00
2023-04-10T03:27:26.458Z,100.00
2023-04-10T03:29:55.668Z,100.00
2023-04-10T03:32:24.796Z,100.00
2023-04-10T03:34:55.993Z,100.00
2023-04-10T03:37:25.801Z,100.00
2023-04-10T03:39:57.660Z,100.00
2023-04-10T03:42:27.154Z,100.00
2023-04-10T03:44:57.612Z,100.00
2023-04-10T03:47:27.271Z,100.00
2023-04-10T03:49:57.855Z,100.00
2023-04-10T03:52:28.783Z,100.00
2023-04-10T03:55:01.481Z,100.00
2023-04-10T03:57:31.052Z,100.00
2023-04-10T04:00:05.948Z,100.00
2023-04-10T04:02:51.037Z,100.00
2023-04-10T04:05:36.977Z,100.00
2023-04-10T04:08:41.822Z,100.00
2023-04-10T04:11:34.159Z,100.00
2023-04-10T04:14:07.213Z,100.00
2023-04-10T04:17:15.826Z,100.00
2023-04-10T04:20:16.045Z,100.00
2023-04-10T04:23:19.462Z,100.00
2023-04-10T04:26:09.704Z,100.00
2023-04-10T04:28:58.430Z,100.00
2023-04-10T04:32:03.482Z,100.00
2023-04-10T04:34:54.756Z,100.00
2023-04-10T04:37:33.689Z,100.00
2023-04-10T04:40:22.750Z,100.00
2023-04-10T04:43:33.117Z,100.00
2023-04-10T04:46:09.447Z,100.00
2023-04-10T04:48:57.117Z,100.00
2023-04-10T04:51:51.793Z,100.00
2023-04-10T04:54:50.253Z,100.00
2023-04-10T04:57:48.537Z,100.00
2023-04-10T05:00:34.265Z,100.00
2023-04-10T05:03:29.610Z,100.00
2023-04-10T05:06:18.897Z,100.00
2023-04-10T05:09:09.424Z,100.00
2023-04-10T05:12:04.049Z,100.00
2023-04-10T05:14:58.996Z,100.00
2023-04-10T05:17:54.849Z,100.00
2023-04-10T05:20:50.812Z,100.00
2023-04-10T05:23:39.769Z,100.00
2023-04-10T05:26:25.896Z,100.00
2023-04-10T05:29:06.645Z,100.00
2023-04-10T05:31:56.081Z,100.00
2023-04-10T05:34:48.280Z,100.00
2023-04-10T05:37:34.689Z,100.00
2023-04-10T05:40:36.381Z,100.00
2023-04-10T05:43:24.366Z,100.00
2023-04-10T05:46:01.774Z,100.00
2023-04-10T05:48:53.329Z,100.00
2023-04-10T05:51:39.603Z,100.00
2023-04-10T05:54:21.235Z,100.00
2023-04-10T05:57:12.331Z,100.00
2023-04-10T06:00:02.568Z,100.00
2023-04-10T06:02:46.458Z,100.00
2023-04-10T06:05:26.080Z,100.00
2023-04-10T06:08:01.503Z,100.00
2023-04-10T06:10:31.796Z,100.00
2023-04-10T06:13:01.950Z,100.00
2023-04-10T06:15:33.216Z,100.00
2023-04-10T06:18:02.536Z,100.00
2023-04-10T06:20:33.698Z,100.00
2023-04-10T06:23:04.001Z,100.00
2023-04-10T06:25:33.302Z,100.00
2023-04-10T06:28:02.846Z,100.00
2023-04-10T06:30:34.710Z,100.00
2023-04-10T06:33:04.858Z,100.00
2023-04-10T06:35:38.802Z,100.00
2023-04-10T06:38:09.053Z,100.00
2023-04-10T06:40:39.403Z,100.00
2023-04-10T06:43:09.013Z,100.00
2023-04-10T06:45:43.270Z,100.00
2023-04-10T06:48:13.404Z,100.00
2023-04-10T06:50:46.950Z,100.00
2023-04-10T06:53:18.766Z,100.00
2023-04-10T06:55:48.317Z,100.00
2023-04-10T06:58:17.785Z,100.00
2023-04-10T07:00:47.369Z,100.00
2023-04-10T07:03:16.660Z,100.00
2023-04-10T08:15:04.853Z,100.00
2023-04-10T08:17:37.961Z,100.00
2023-04-10T08:20:08.917Z,100.00
2023-04-10T08:22:42.057Z,100.00
2023-04-10T08:25:15.498Z,100.00
2023-04-10T08:27:45.269Z,100.00
2023-04-10T08:30:14.923Z,100.00
2023-04-10T08:32:44.547Z,100.00
2023-04-10T08:35:14.191Z,100.00
2023-04-10T08:37:49.632Z,100.00
2023-04-10T08:40:24.449Z,100.00
2023-04-10T08:42:54.265Z,100.00
2023-04-10T08:45:24.161Z,100.00
2023-04-10T08:47:56.645Z,100.00
2023-04-10T08:50:27.132Z,100.00
2023-04-10T08:52:57.893Z,100.00
2023-04-10T08:55:28.642Z,100.00
2023-04-10T08:58:01.530Z,100.00
2023-04-10T09:00:34.633Z,100.00
2023-04-10T09:03:05.430Z,100.00
2023-04-10T09:05:36.941Z,100.00
2023-04-10T09:08:06.230Z,100.00
2023-04-10T09:10:37.112Z,100.00
2023-04-10T09:13:06.308Z,100.00
2023-04-10T09:16:00.371Z,100.00
2023-04-10T09:18:41.955Z,100.00
2023-04-10T09:21:15.378Z,100.00
2023-04-10T09:23:47.076Z,100.00
2023-04-10T09:26:28.584Z,100.00
2023-04-10T09:29:00.219Z,100.00
2023-04-10T09:31:34.297Z,100.00
2023-04-10T09:34:13.548Z,100.00
2023-04-10T09:36:43.683Z,100.00
2023-04-10T09:39:13.548Z,100.00
2023-04-10T09:41:52.512Z,100.00
2023-04-10T09:44:31.307Z,100.00
2023-04-10T09:47:01.255Z,100.00
2023-04-10T09:49:45.755Z,100.00
2023-04-10T09:52:20.591Z,100.00
2023-04-10T09:54:50.006Z,100.00
2023-04-10T09:57:24.060Z,100.00
2023-04-10T09:59:58.225Z,100.00
2023-04-10T10:02:32.714Z,100.00
2023-04-10T10:05:03.040Z,100.00
2023-04-10T10:07:33.515Z,100.00
2023-04-10T10:10:04.682Z,100.00
2023-04-10T10:12:41.835Z,100.00
2023-04-10T10:15:17.995Z,100.00
2023-04-10T10:17:55.572Z,100.00
2023-04-10T10:20:26.243Z,100.00
2023-04-10T10:22:57.287Z,100.00
2023-04-10T10:25:27.914Z,100.00
2023-04-10T10:28:04.119Z,100.00
2023-04-10T10:30:41.928Z,100.00
2023-04-10T10:33:14.330Z,100.00
2023-04-10T10:35:44.263Z,100.00
2023-04-10T10:38:14.118Z,100.00
2023-04-10T10:40:50.624Z,100.00
2023-04-10T10:43:34.308Z,100.00
2023-04-10T10:46:05.179Z,98.16
2023-04-10T10:48:34.980Z,98.57
2023-04-10T10:51:04.529Z,100.00
2023-04-10T10:53:40.372Z,100.00
2023-04-10T10:56:46.201Z,100.00
2023-04-10T10:59:17.553Z,100.00
2023-04-10T11:02:16.342Z,100.00
2023-04-10T11:04:46.402Z,100.00
2023-04-10T11:07:16.337Z,81.19
2023-04-10T11:09:52.970Z,94.85
2023-04-10T11:12:24.196Z,100.00
2023-04-10T11:15:02.206Z,100.00
2023-04-10T11:17:52.119Z,100.00
2023-04-10T11:20:27.317Z,100.00
2023-04-10T11:23:12.976Z,97.30
2023-04-10T11:25:50.401Z,90.98
2023-04-10T11:28:39.744Z,91.78
2023-04-10T11:31:19.999Z,97.13
2023-04-10T11:33:52.186Z,89.38
2023-04-10T11:36:27.349Z,100.00
2023-04-10T11:38:58.149Z,96.11
2023-04-10T11:41:32.225Z,98.18
2023-04-10T11:44:03.586Z,100.00
2023-04-10T11:46:39.332Z,96.84
2023-04-10T11:49:10.380Z,93.07
2023-04-10T11:51:40.903Z,99.34
2023-04-10T11:54:11.332Z,100.00
2023-04-10T11:56:41.630Z,100.00
2023-04-10T11:59:14.478Z,100.00
2023-04-10T12:01:45.483Z,100.00
2023-04-10T12:04:23.501Z,100.00
2023-04-10T12:06:55.306Z,100.00
2023-04-10T12:09:25.154Z,100.00
2023-04-10T12:11:59.801Z,100.00
2023-04-10T12:14:33.509Z,100.00
2023-04-10T12:17:43.356Z,100.00
2023-04-10T12:20:25.018Z,96.68
2023-04-10T12:23:05.379Z,72.55
2023-04-10T12:25:39.428Z,61.40
2023-04-10T12:28:09.652Z,56.89
2023-04-10T12:30:40.414Z,50.11
2023-04-10T12:33:12.662Z,41.31
2023-04-10T12:35:44.014Z,39.39
2023-04-10T12:38:22.914Z,42.67
2023-04-10T12:41:04.980Z,47.17
2023-04-10T12:43:35.620Z,54.54
2023-04-10T12:46:18.579Z,64.44
2023-04-10T12:48:51.508Z,83.37
2023-04-10T12:51:28.102Z,83.98
2023-04-10T12:53:58.162Z,78.51
2023-04-10T12:56:36.450Z,93.51
2023-04-10T12:59:10.785Z,100.00
2023-04-10T13:01:42.553Z,100.00
2023-04-10T13:04:14.283Z,100.00
2023-04-10T13:06:45.360Z,100.00
2023-04-10T13:09:15.859Z,100.00
2023-04-10T13:11:46.083Z,100.00
2023-04-10T13:14:17.091Z,100.00
2023-04-10T13:16:47.141Z,100.00
2023-04-10T13:19:17.866Z,100.00
2023-04-10T13:21:50.884Z,100.00
2023-04-10T13:24:22.752Z,100.00
2023-04-10T13:26:52.459Z,100.00
2023-04-10T13:29:26.815Z,100.00
2023-04-10T13:31:57.906Z,100.00
2023-04-10T13:34:31.409Z,100.00
2023-04-10T13:37:04.052Z,100.00
2023-04-10T13:39:35.911Z,100.00
2023-04-10T13:42:05.410Z,100.00
2023-04-10T13:44:36.309Z,100.00
2023-04-10T13:47:08.901Z,100.00
2023-04-10T13:49:41.825Z,100.00
2023-04-10T13:52:11.452Z,100.00
2023-04-10T13:55:25.511Z,100.00
2023-04-10T13:57:56.132Z,100.00
2023-04-10T14:00:25.377Z,100.00
2023-04-10T14:06:15.540Z,80.90
2023-04-10T14:08:46.313Z,61.37
2023-04-10T14:11:19.417Z,51.03
2023-04-10T14:13:52.764Z,47.50
2023-04-10T14:16:25.232Z,44.25
2023-04-10T14:18:56.437Z,41.60
2023-04-10T14:21:36.794Z,41.17
2023-04-10T14:24:10.008Z,38.69
2023-04-10T14:26:40.786Z,40.75
2023-04-10T14:29:14.755Z,41.83
2023-04-10T14:31:57.627Z,43.66
2023-04-10T14:34:32.082Z,42.98
2023-04-10T14:37:02.881Z,40.83
2023-04-10T14:39:41.464Z,38.19
2023-04-10T14:42:13.051Z,35.70
2023-04-10T14:44:43.942Z,36.09
2023-04-10T14:47:15.968Z,35.20
2023-04-10T14:49:48.201Z,34.25
2023-04-10T14:52:18.795Z,34.29
2023-04-10T14:54:49.413Z,35.37
2023-04-10T14:57:21.566Z,35.74
2023-04-10T14:59:51.285Z,36.16
2023-04-10T15:02:21.911Z,37.07
2023-04-10T15:04:52.886Z,40.05
2023-04-10T15:07:28.533Z,42.97
2023-04-10T15:10:01.546Z,43.65
2023-04-10T15:12:33.692Z,43.01
2023-04-10T15:15:16.173Z,45.06
2023-04-10T15:17:46.688Z,44.90
2023-04-10T15:20:21.672Z,41.31
2023-04-10T15:22:55.325Z,41.85
2023-04-10T15:25:26.989Z,41.96
2023-04-10T15:27:57.341Z,42.76
2023-04-10T15:30:28.461Z,44.57
2023-04-10T15:32:58.439Z,43.92
2023-04-10T15:35:30.525Z,44.39
2023-04-10T15:38:06.918Z,44.70
2023-04-10T15:40:39.656Z,45.70
2023-04-10T15:43:16.748Z,46.56
2023-04-10T15:45:53.056Z,45.17
2023-04-10T15:48:26.759Z,47.06
2023-04-10T15:51:00.513Z,47.13
2023-04-10T15:53:31.981Z,49.21
2023-04-10T15:56:06.363Z,48.14
2023-04-10T15:58:40.874Z,48.04
2023-04-10T16:01:19.429Z,55.90
2023-04-10T16:03:59.190Z,81.66
2023-04-10T16:06:36.739Z,94.29
2023-04-10T16:09:18.656Z,100.00
2023-04-10T16:11:57.976Z,100.00
2023-04-10T16:14:29.918Z,100.00
2023-04-10T16:17:02.092Z,100.00
2023-04-10T16:19:32.614Z,100.00
2023-04-10T16:22:02.357Z,100.00
2023-04-10T16:24:35.890Z,100.00
2023-04-10T16:27:05.322Z,100.00
2023-04-10T16:29:34.593Z,100.00
2023-04-10T16:32:03.878Z,100.00
2023-04-10T16:34:33.331Z,100.00
2023-04-10T16:37:02.928Z,100.00
2023-04-10T16:39:32.014Z,100.00
2023-04-10T16:42:03.595Z,100.00
2023-04-10T16:44:33.796Z,100.00
2023-04-10T16:47:02.881Z,100.00
2023-04-10T16:49:32.204Z,100.00
2023-04-10T16:52:01.918Z,100.00
2023-04-10T16:54:31.232Z,100.00
2023-04-10T16:57:00.415Z,100.00
2023-04-10T16:59:30.834Z,100.00
2023-04-10T17:02:03.778Z,100.00
2023-04-10T17:04:32.963Z,100.00
2023-04-10T17:07:02.376Z,100.00
2023-04-10T17:09:32.097Z,100.00
2023-04-10T17:12:01.231Z,100.00
2023-04-10T17:14:33.507Z,100.00
2023-04-10T17:17:02.744Z,100.00
2023-04-10T17:19:33.048Z,100.00
2023-04-10T17:22:02.500Z,100.00
2023-04-10T17:24:31.887Z,100.00
2023-04-10T17:27:02.362Z,100.00
2023-04-10T17:29:37.354Z,100.00
2023-04-10T17:32:07.281Z,100.00
2023-04-10T17:34:38.688Z,100.00
2023-04-10T17:37:08.386Z,100.00
2023-04-10T17:39:38.570Z,100.00
2023-04-10T17:42:08.782Z,100.00
2023-04-10T17:44:39.053Z,100.00
2023-04-10T17:47:08.242Z,100.00
2023-04-10T17:49:39.736Z,100.00
2023-04-10T17:52:09.030Z,100.00
2023-04-10T17:54:45.426Z,100.00
2023-04-10T17:57:17.227Z,100.00
2023-04-10T17:59:52.376Z,100.00
2023-04-10T18:09:02.820Z,100.00
2023-04-10T18:11:33.272Z,100.00
2023-04-10T18:14:02.491Z,100.00
2023-04-10T18:16:41.876Z,100.00
2023-04-10T18:19:25.517Z,100.00
2023-04-10T18:22:57.837Z,100.00
2023-04-10T18:25:46.667Z,100.00
2023-04-10T18:29:27.858Z,100.00
2023-04-10T18:32:47.728Z,100.00
2023-04-10T18:36:07.895Z,100.00
2023-04-10T18:38:47.848Z,100.00
2023-04-10T18:41:17.117Z,100.00
2023-04-10T18:43:51.256Z,100.00
2023-04-10T18:47:03.913Z,100.00
2023-04-10T18:49:51.885Z,100.00
2023-04-10T18:52:24.759Z,100.00
2023-04-10T18:55:08.443Z,100.00
2023-04-10T18:57:38.272Z,100.00
2023-04-10T19:00:09.900Z,100.00
2023-04-10T19:02:39.406Z,100.00
2023-04-10T19:05:14.296Z,100.00
2023-04-10T19:07:56.667Z,100.00
2023-04-10T19:10:33.897Z,100.00
2023-04-10T19:13:03.932Z,100.00
2023-04-10T19:15:33.183Z,100.00
2023-04-10T19:18:03.359Z,100.00
2023-04-10T19:20:50.006Z,100.00
2023-04-10T19:23:21.305Z,100.00
2023-04-10T19:25:53.816Z,100.00
2023-04-10T19:28:26.578Z,100.00
2023-04-10T19:30:56.041Z,100.00
2023-04-10T19:33:25.665Z,100.00
2023-04-10T19:36:00.943Z,100.00
2023-04-10T19:38:30.763Z,100.00
2023-04-10T19:41:00.354Z,100.00
2023-04-10T19:43:30.297Z,100.00
2023-04-10T19:46:07.407Z,100.00
2023-04-10T19:48:44.826Z,100.00
2023-04-10T19:51:16.388Z,100.00
2023-04-10T19:53:48.117Z,100.00
2023-04-10T19:56:18.274Z,100.00
2023-04-10T19:58:48.129Z,100.00
2023-04-10T20:01:18.341Z,100.00
2023-04-10T20:03:47.740Z,100.00
2023-04-10T20:06:20.523Z,100.00
2023-04-10T20:08:49.729Z,100.00
2023-04-10T20:11:20.783Z,100.00
2023-04-10T20:13:49.969Z,100.00
2023-04-10T20:16:19.405Z,100.00
2023-04-10T20:18:48.938Z,100.00
2023-04-10T20:21:20.335Z,100.00
2023-04-10T20:23:51.753Z,100.00
2023-04-10T20:26:21.701Z,100.00
2023-04-10T20:28:55.038Z,100.00
2023-04-10T20:31:24.657Z,100.00
2023-04-10T20:33:54.766Z,100.00
2023-04-10T20:36:26.514Z,100.00
2023-04-10T20:38:56.351Z,100.00
2023-04-10T20:41:26.413Z,100.00
2023-04-10T20:43:57.516Z,100.00
2023-04-10T20:46:27.575Z,100.00
2023-04-10T20:48:59.311Z,100.00
2023-04-10T20:51:30.287Z,100.00
2023-04-10T20:53:59.590Z,100.00
2023-04-10T20:56:36.705Z,100.00
2023-04-10T20:59:13.179Z,100.00
2023-04-10T21:01:42.839Z,100.00
2023-04-10T21:04:11.996Z,100.00
2023-04-10T21:06:45.626Z,100.00
2023-04-10T21:09:14.648Z,100.00
2023-04-10T21:11:43.959Z,100.00
2023-04-10T21:14:17.614Z,100.00
2023-04-10T21:16:49.726Z,100.00
2023-04-10T21:19:18.889Z,100.00
2023-04-10T21:21:49.343Z,100.00
2023-04-10T21:24:19.002Z,100.00
2023-04-10T21:26:48.304Z,100.00
2023-04-10T21:29:17.612Z,100.00
2023-04-10T21:31:47.908Z,100.00
2023-04-10T21:34:18.636Z,100.00
2023-04-10T21:36:49.519Z,100.00
2023-04-10T21:39:18.717Z,100.00
2023-04-10T21:41:47.782Z,100.00
2023-04-10T21:44:17.241Z,100.00
2023-04-10T21:46:46.626Z,100.00
2023-04-10T21:49:15.930Z,100.00
2023-04-10T21:51:45.168Z,100.00
2023-04-10T21:54:15.540Z,100.00
2023-04-10T21:56:44.828Z,100.00
2023-04-10T21:59:13.952Z,100.00
2023-04-10T22:01:46.009Z,100.00
2023-04-10T22:04:15.766Z,100.00
2023-04-10T22:06:45.028Z,100.00
2023-04-10T22:09:15.916Z,100.00
2023-04-10T22:11:45.262Z,100.00
2023-04-10T22:14:17.927Z,100.00
2023-04-10T22:16:47.987Z,100.00
2023-04-10T22:19:17.374Z,100.00
2023-04-10T22:21:46.716Z,100.00
2023-04-10T22:24:17.362Z,100.00
2023-04-10T22:26:47.085Z,100.00
2023-04-10T22:29:16.410Z,100.00
2023-04-10T22:31:46.524Z,100.00
2023-04-10T22:34:16.268Z,100.00
2023-04-10T22:36:45.462Z,100.00
2023-04-10T22:39:15.170Z,100.00
2023-04-10T22:41:45.926Z,100.00
2023-04-10T22:44:15.069Z,100.00
2023-04-10T22:46:44.379Z,100.00
2023-04-10T22:49:17.122Z,100.00
2023-04-10T22:51:56.934Z,100.00
2023-04-10T22:54:26.485Z,100.00
2023-04-10T22:56:58.118Z,100.00
2023-04-10T22:59:33.030Z,100.00
2023-04-10T23:02:04.503Z,100.00
2023-04-10T23:04:33.746Z,100.00
2023-04-10T23:07:02.896Z,100.00
2023-04-10T23:09:31.982Z,100.00
2023-04-10T23:12:02.554Z,100.00
2023-04-10T23:14:31.753Z,100.00
2023-04-10T23:17:00.844Z,100.00
2023-04-10T23:19:34.852Z,100.00
2023-04-10T23:22:07.291Z,100.00
2023-04-10T23:24:36.736Z,100.00
2023-04-10T23:27:08.130Z,100.00
2023-04-10T23:29:37.179Z,100.00
2023-04-10T23:32:08.618Z,100.00
2023-04-10T23:34:38.411Z,100.00
2023-04-10T23:37:07.769Z,100.00
2023-04-10T23:39:37.186Z,100.00
2023-04-10T23:42:08.272Z,100.00
2023-04-10T23:44:37.340Z,100.00
2023-04-10T23:47:07.311Z,100.00
2023-04-10T23:49:36.588Z,100.00
2023-04-10T23:52:06.121Z,100.00
2023-04-10T23:54:35.584Z,100.00
2023-04-10T23:57:05.360Z,100.00
2023-04-10T23:59:36.028Z,100.00
